Flight Track Log - Related Links

Times and Time Zones

All times are in EDT time to prevent confusion due to time zone crossing. See the GTX137 flight status page for this flight to view local times or setup timezone preferences in your user account.

Time Position Orientation Groundspeed Altitude Reporting Facility
EDT Latitude Longitude Course Direction KTS MPH feet Rate Location/Type
Thu 09:11:42 PM 29.6564 -95.2889 302° West 121 139 400  Level Houston Center
Thu 09:12:43 PM 29.6739 -95.3206 308° West 119 137 1,400 876 Climbing Houston Center
Thu 09:13:11 PM 29.6794 -95.3358 293° West 123 142 1,700 655 Climbing Houston Center
Thu 09:13:38 PM 29.6858 -95.3575 289° West 129 148 2,000 689 Climbing Houston Center
Thu 09:14:12 PM 29.6942 -95.3747 299° West 127 146 2,400 774 Climbing Houston Center
Thu 09:14:40 PM 29.7017 -95.3942 294° West 130 150 2,800 677 Climbing Houston Center
Thu 09:15:14 PM 29.7086 -95.4131 293° West 127 146 3,100 295 Climbing Houston Center
Thu 09:15:41 PM 29.7161 -95.4358 291° West 143 165 3,100 -98 Level Houston Center
Thu 09:16:15 PM 29.7244 -95.4564 295° West 140 161 3,000  Descending Houston Center
Thu 09:16:47 PM 29.7358 -95.4911 291° West 170 196 3,100 97 Climbing Houston Center
Thu 09:17:17 PM 29.7439 -95.5064 301° West 163 188 3,100 295 Level Houston Center
Thu 09:17:48 PM 29.7569 -95.5392 295° West 171 197 3,400 581 Climbing Houston Center
Thu 09:18:19 PM 29.7633 -95.5531 298° West 166 191 3,700 871 Climbing Houston Center
Thu 09:18:50 PM 29.7733 -95.5806 293° West 134 154 4,300 787 Climbing Houston Center
Thu 09:19:20 PM 29.7783 -95.5917 297° West 140 161 4,500 295 Climbing Houston Center
Thu 09:19:51 PM 29.7894 -95.6219 293° West 135 155 4,600 97 Climbing Houston Center
Thu 09:20:22 PM 29.7978 -95.6442 293° West 147 169 4,600  Level Houston Center
Thu 09:20:52 PM 29.8067 -95.6728 290° West 168 193 4,600 295 Level Houston Center
Thu 09:21:23 PM 29.8158 -95.6928 298° West 164 189 4,900 787 Climbing Houston Center
Thu 09:21:53 PM 29.8347 -95.7056 330° Northwest 148 170 5,400 871 Climbing Houston Center
Thu 09:22:25 PM 29.8517 -95.7086 351° North 144 166 5,800 885 Climbing Houston Center
Thu 09:22:54 PM 29.8694 -95.7161 340° North 124 143 6,300 787 Climbing Houston Center
Thu 09:23:26 PM 29.8861 -95.7225 342° North 135 155 6,600 269 Climbing Houston Center
Thu 09:24:01 PM 29.9108 -95.7328 340° North 145 167 6,600  Level Houston Center
Thu 09:24:28 PM 29.9231 -95.7361 347° North 139 160 6,600  Level Houston Center
Thu 09:25:02 PM 29.9519 -95.7475 341° North 154 177 6,600  Level Houston Center
Thu 09:25:29 PM 29.9656 -95.7508 348° North 157 181 6,600 -98 Level Houston Center
Thu 09:26:03 PM 29.9933 -95.7642 337° Northwest 159 183 6,500 -97 Descending Houston Center
Thu 09:26:31 PM 30.0069 -95.7675 348° North 157 181 6,500 109 Level Houston Center
Thu 09:26:58 PM 30.0322 -95.7767 343° North 159 183 6,600 98 Climbing Houston Center
Thu 09:27:32 PM 30.0492 -95.7808 348° North 156 180 6,600  Level Houston Center
Thu 09:28:00 PM 30.0753 -95.7908 342° North 155 178 6,600 -97 Level Houston Center
Thu 09:28:34 PM 30.0986 -95.7994 342° North 156 180 6,500  Descending Houston Center
Thu 09:29:00 PM 30.1189 -95.8075 341° North 156 180 6,600 98 Climbing Houston Center
Thu 09:29:35 PM 30.1400 -95.8136 346° North 156 180 6,600  Level Houston Center
Thu 09:30:07 PM 30.1622 -95.8242 338° Northwest 154 177 6,600  Level Houston Center
Thu 09:30:36 PM 30.1811 -95.8272 352° North 155 178 6,600  Level Houston Center
Thu 09:31:08 PM 30.2033 -95.8389 336° Northwest 152 175 6,600  Level Houston Center
Thu 09:31:38 PM 30.2217 -95.8428 350° North 155 178 6,600  Level Houston Center
Thu 09:32:09 PM 30.2464 -95.8506 345° North 151 174 6,600  Level Houston Center
Thu 09:32:39 PM 30.2611 -95.8558 343° North 151 174 6,600 -109 Level Houston Center
Thu 09:33:04 PM 30.2833 -95.8658 339° North 151 174 6,500  Descending Houston Center
Thu 09:33:40 PM 30.3019 -95.8694 350° North 151 174 6,600  Climbing Houston Center
Thu 09:34:05 PM 30.3244 -95.8803 337° Northwest 153 176 6,500 -97 Descending Houston Center
Thu 09:34:42 PM 30.3433 -95.8861 345° North 152 175 6,500 98 Level Houston Center
Thu 09:35:06 PM 30.3658 -95.8950 341° North 156 180 6,600 98 Climbing Houston Center
Thu 09:35:43 PM 30.3836 -95.8997 347° North 152 175 6,600 -90 Level Houston Center
Thu 09:36:13 PM 30.4111 -95.9114 340° North 156 180 6,500 -98 Descending Houston Center
Thu 09:36:44 PM 30.4269 -95.9150 349° North 157 181 6,500 98 Level Houston Center
Thu 09:37:14 PM 30.4544 -95.9258 341° North 158 182 6,600 97 Climbing Houston Center
Thu 09:37:46 PM 30.4756 -95.9336 342° North 157 181 6,600  Level Houston Center
Thu 09:38:09 PM 30.4914 -95.9408 339° North 159 183 6,600 -98 Level Houston Center
Thu 09:38:47 PM 30.5178 -95.9494 344° North 157 181 6,500  Descending Houston Center
Thu 09:39:04 PM 30.5325 -95.9556 340° North 158 182 6,600 98 Climbing Houston Center
Thu 09:39:48 PM 30.5606 -95.9642 345° North 157 181 6,600  Level Houston Center
Thu 09:40:05 PM 30.5736 -95.9678 347° North 159 183 6,600  Level Houston Center
Thu 09:40:50 PM 30.6031 -95.9792 342° North 158 182 6,600  Level Houston Center
Thu 09:41:06 PM 30.6189 -95.9844 344° North 161 185 6,600  Level Houston Center
Thu 09:41:51 PM 30.6475 -95.9936 345° North 162 186 6,600  Level Houston Center
Thu 09:42:08 PM 30.6622 -95.9989 343° North 160 184 6,600  Level Houston Center
Thu 09:42:52 PM 30.6900 -96.0083 344° North 161 185 6,600  Level Houston Center
Thu 09:43:08 PM 30.7053 -96.0133 344° North 160 184 6,600  Level Houston Center
Thu 09:43:53 PM 30.7328 -96.0242 341° North 159 183 6,600  Level Houston Center
Thu 09:44:09 PM 30.7489 -96.0303 342° North 160 184 6,600 -97 Level Houston Center
Thu 09:44:55 PM 30.7761 -96.0383 346° North 161 185 6,500  Descending Houston Center
Thu 09:45:10 PM 30.7942 -96.0444 344° North 160 184 6,600 98 Climbing Houston Center
Thu 09:45:56 PM 30.8183 -96.0519 345° North 160 184 6,600 -98 Level Houston Center
Thu 09:46:11 PM 30.8353 -96.0592 340° North 161 185 6,500  Descending Houston Center
Thu 09:46:57 PM 30.8642 -96.0678 346° North 160 184 6,600 56 Climbing Houston Center
Thu 09:47:58 PM 30.9053 -96.0822 343° North 160 184 6,600  Level Houston Center
Thu 09:48:59 PM 30.9483 -96.0964 344° North 160 184 6,600  Level Houston Center
Thu 09:50:01 PM 30.9900 -96.1128 341° North 160 184 6,600  Level Houston Center
Thu 09:51:02 PM 31.0411 -96.1308 343° North 159 183 6,600  Level Houston Center
Thu 09:52:03 PM 31.0819 -96.1447 344° North 158 182 6,600  Level Houston Center
Thu 09:53:04 PM 31.1253 -96.1603 343° North 159 183 6,600  Level Houston Center
Thu 09:54:05 PM 31.1669 -96.1764 342° North 159 183 6,600  Level Houston Center
Thu 09:55:06 PM 31.2089 -96.1928 342° North 159 183 6,600  Level Houston Center
Thu 09:56:07 PM 31.2514 -96.2078 343° North 159 183 6,600  Level Houston Center
Thu 09:57:08 PM 31.2942 -96.2228 343° North 159 183 6,600  Level Houston Center
Thu 09:58:09 PM 31.3369 -96.2375 344° North 160 184 6,600  Level Houston Center
Thu 09:59:11 PM 31.3783 -96.2533 342° North 159 183 6,600  Level Houston Center
Thu 10:00:12 PM 31.4217 -96.2689 343° North 159 183 6,600  Level Houston Center
Thu 10:01:13 PM 31.4744 -96.2847 346° North 160 184 6,600  Level Houston Center
Thu 10:02:14 PM 31.5167 -96.3003 343° North 160 184 6,600  Level Houston Center
Thu 10:03:15 PM 31.5597 -96.3164 342° North 160 184 6,600  Level Houston Center
Thu 10:04:16 PM 31.6017 -96.3314 343° North 160 184 6,600  Level Houston Center
Thu 10:05:18 PM 31.6450 -96.3481 342° North 160 184 6,600  Level Houston Center
Thu 10:06:19 PM 31.6869 -96.3653 341° North 160 184 6,600  Level Houston Center
Thu 10:07:40 PM 31.7494 -96.3883 343° North 161 185 6,600  Level Fort Worth Center
Thu 10:08:42 PM 31.7906 -96.4044 342° North 160 184 6,600  Level Fort Worth Center
Thu 10:09:44 PM 31.8336 -96.4208 342° North 161 185 6,600  Level Fort Worth Center
Thu 10:10:45 PM 31.8747 -96.4364 342° North 158 182 6,600  Level Fort Worth Center
Thu 10:11:47 PM 31.9172 -96.4519 343° North 159 183 6,600  Level Fort Worth Center
Thu 10:12:48 PM 31.9592 -96.4681 342° North 160 184 6,600  Level Fort Worth Center
Thu 10:13:50 PM 32.0019 -96.4853 341° North 163 188 6,600  Level Fort Worth Center
Thu 10:14:52 PM 32.0544 -96.5028 344° North 164 189 6,600  Level Fort Worth Center
Thu 10:15:53 PM 32.0972 -96.5178 343° North 162 186 6,600  Level Fort Worth Center
Thu 10:16:55 PM 32.1403 -96.5336 343° North 163 188 6,600  Level Fort Worth Center
Thu 10:17:56 PM 32.1831 -96.5494 343° North 161 185 6,600 -146 Level Fort Worth Center
Thu 10:18:58 PM 32.2322 -96.5658 344° North 164 189 6,300 -390 Descending Fort Worth Center
Thu 10:19:59 PM 32.2789 -96.5864 340° North 176 203 5,800 -585 Descending Fort Worth Center
Thu 10:21:01 PM 32.3314 -96.6056 343° North 180 207 5,100 -629 Descending Fort Worth Center
Thu 10:22:03 PM 32.3794 -96.6236 342° North 181 208 4,500 -293 Descending Fort Worth Center
Thu 10:23:04 PM 32.4244 -96.6397 343° North 170 196 4,500  Level Fort Worth Center
Thu 10:24:06 PM 32.4719 -96.6542 346° North 166 191 4,500 49 Level Fort Worth Center
Thu 10:25:07 PM 32.5153 -96.6667 346° North 164 189 4,600  Climbing Fort Worth Center
Thu 10:26:09 PM 32.5586 -96.6811 344° North 163 188 4,500  Descending Fort Worth Center
Thu 10:27:10 PM 32.6067 -96.6964 345° North 163 188 4,600  Climbing Fort Worth Center
Thu 10:28:12 PM 32.6494 -96.7117 343° North 163 188 4,500 -49 Descending Fort Worth Center
Thu 10:29:13 PM 32.6931 -96.7256 345° North 163 188 4,500 -488 Level Fort Worth Center
Thu 10:30:15 PM 32.7442 -96.7422 345° North 175 201 3,500 -871 Descending Fort Worth Center
Thu 10:31:17 PM 32.7922 -96.7600 343° North 178 205 2,700 -585 Descending Fort Worth Center
Thu 10:32:18 PM 32.8367 -96.7794 340° North 170 196 2,300 -293 Descending Fort Worth Center
Thu 10:33:20 PM 32.8725 -96.7936 342° North 126 145 2,100 -146 Descending Fort Worth Center
Thu 10:34:21 PM 32.9014 -96.8072 338° Northwest 116 133 2,000 -390 Descending Fort Worth Center
Thu 10:35:23 PM 32.9328 -96.8214 339° North 117 135 1,300 -585 Descending Fort Worth Center
Thu 10:36:24 PM 32.9578 -96.8319 340° North 115 132 800 -492 Descending Fort Worth Center
Thu 10:38:00 PM 32.9667 -96.8333 337° Northwest  Level FlightAware Approximate
Thu 10:45:00 PM 32.9686 -96.8364 337° Northwest  Level Estimated

Login

Don't have an account? Register now (free) for customized features, flight alerts, and more!